createdAt,value
2022-08-17T00:00:40.310Z,95.60
2022-08-17T00:01:19.023Z,92.82
2022-08-17T00:01:56.459Z,94.80
2022-08-17T00:02:29.123Z,93.57
2022-08-17T00:03:08.469Z,93.10
2022-08-17T00:03:45.672Z,94.27
2022-08-17T00:04:19.339Z,94.78
2022-08-17T00:04:52.323Z,94.75
2022-08-17T00:05:25.914Z,93.55
2022-08-17T00:06:02.359Z,93.97
2022-08-17T00:06:35.702Z,93.80
2022-08-17T00:07:08.342Z,93.47
2022-08-17T00:07:41.898Z,92.88
2022-08-17T00:08:16.971Z,95.30
2022-08-17T00:08:55.088Z,93.65
2022-08-17T00:09:27.676Z,93.68
2022-08-17T00:10:00.198Z,93.82
2022-08-17T00:10:32.760Z,94.30
2022-08-17T00:11:08.366Z,95.43
2022-08-17T00:11:43.158Z,93.95
2022-08-17T00:12:44.153Z,93.97
2022-08-17T00:13:21.425Z,93.40
2022-08-17T00:13:58.640Z,95.05
2022-08-17T00:14:31.258Z,95.05
2022-08-17T00:15:06.044Z,96.45
2022-08-17T00:15:41.081Z,93.30
2022-08-17T00:16:18.232Z,95.20
2022-08-17T00:16:56.974Z,94.90
2022-08-17T00:17:30.202Z,92.82
2022-08-17T00:18:04.300Z,96.03
2022-08-17T00:19:07.511Z,96.65
2022-08-17T00:19:42.126Z,96.00
2022-08-17T00:20:15.343Z,95.40
2022-08-17T00:20:50.946Z,95.03
2022-08-17T00:21:25.587Z,94.05
2022-08-17T00:22:34.061Z,94.90
2022-08-17T00:23:04.027Z,95.88
2022-08-17T00:23:38.222Z,95.38
2022-08-17T00:24:11.334Z,95.50
2022-08-17T00:24:43.819Z,95.20
2022-08-17T00:25:20.024Z,95.15
2022-08-17T00:25:53.397Z,95.13
2022-08-17T00:26:43.507Z,95.40
2022-08-17T00:27:17.935Z,95.20
2022-08-17T00:27:50.465Z,95.43
2022-08-17T00:28:24.650Z,95.05
2022-08-17T00:28:58.308Z,95.70
2022-08-17T00:29:30.831Z,97.35
2022-08-17T00:30:05.764Z,96.15
2022-08-17T00:30:53.235Z,96.30
2022-08-17T00:31:27.592Z,96.38
2022-08-17T00:32:01.635Z,98.25
2022-08-17T00:33:15.525Z,97.10
2022-08-17T00:33:47.911Z,96.82
2022-08-17T00:34:21.803Z,96.38
2022-08-17T00:34:54.277Z,95.50
2022-08-17T00:35:28.736Z,96.77
2022-08-17T00:36:02.138Z,95.00
2022-08-17T00:36:34.817Z,94.63
2022-08-17T00:37:08.456Z,95.78
2022-08-17T00:37:41.427Z,97.85
2022-08-17T00:38:15.269Z,95.90
2022-08-17T00:38:48.819Z,96.27
2022-08-17T00:39:21.314Z,96.50
2022-08-17T00:39:53.958Z,96.97
2022-08-17T00:40:40.833Z,97.90
2022-08-17T00:41:20.749Z,95.43
2022-08-17T00:41:54.256Z,97.10
2022-08-17T00:42:31.073Z,96.45
2022-08-17T00:43:13.512Z,97.72
2022-08-17T00:43:49.782Z,95.38
2022-08-17T00:44:22.580Z,95.57
2022-08-17T00:45:04.471Z,96.38
2022-08-17T00:45:38.005Z,97.40
2022-08-17T00:46:13.284Z,96.38
2022-08-17T00:46:47.849Z,96.10
2022-08-17T00:47:21.324Z,95.03
2022-08-17T00:47:53.806Z,95.55
2022-08-17T00:48:30.263Z,95.70
2022-08-17T00:49:04.894Z,95.32
2022-08-17T00:49:38.801Z,96.97
2022-08-17T00:50:17.871Z,95.47
2022-08-17T00:50:58.293Z,96.15
2022-08-17T00:51:34.506Z,97.38
2022-08-17T00:52:15.507Z,97.70
2022-08-17T00:52:52.551Z,96.57
2022-08-17T00:53:26.709Z,95.88
2022-08-17T00:54:04.086Z,95.15
2022-08-17T00:54:42.029Z,96.05
2022-08-17T00:55:15.351Z,97.10
2022-08-17T00:55:49.182Z,96.30
2022-08-17T00:56:33.184Z,97.25
2022-08-17T00:57:09.572Z,95.53
2022-08-17T00:57:47.229Z,96.57
2022-08-17T00:58:30.423Z,95.55
2022-08-17T00:59:11.313Z,95.70
2022-08-17T01:00:01.595Z,95.78
2022-08-17T01:00:40.315Z,96.07
2022-08-17T01:01:21.791Z,96.25
2022-08-17T01:01:54.994Z,96.03
2022-08-17T01:02:29.719Z,96.78
2022-08-17T01:03:11.887Z,96.65
2022-08-17T01:03:44.569Z,97.65
2022-08-17T01:04:20.416Z,95.25
2022-08-17T01:04:55.315Z,96.38
2022-08-17T01:05:31.599Z,95.10
2022-08-17T01:06:09.073Z,95.72
2022-08-17T01:06:42.977Z,95.47
2022-08-17T01:07:16.978Z,98.03
2022-08-17T01:07:50.744Z,96.72
2022-08-17T01:08:27.972Z,98.63
2022-08-17T01:09:01.383Z,97.82
2022-08-17T01:09:35.330Z,97.25
2022-08-17T01:10:58.881Z,96.10
2022-08-17T01:11:07.030Z,97.78
2022-08-17T01:11:40.610Z,96.88
2022-08-17T01:12:13.447Z,96.45
2022-08-17T01:12:46.158Z,96.45
2022-08-17T01:13:20.036Z,97.20
2022-08-17T01:13:52.600Z,96.43
2022-08-17T01:14:27.431Z,95.20
2022-08-17T01:14:59.929Z,97.40
2022-08-17T01:15:35.222Z,97.13
2022-08-17T01:16:15.951Z,96.10
2022-08-17T01:16:50.616Z,97.35
2022-08-17T01:17:23.415Z,94.93
2022-08-17T01:17:56.976Z,96.50
2022-08-17T01:18:29.734Z,96.00
2022-08-17T01:19:06.514Z,94.65
2022-08-17T01:19:42.275Z,96.68
2022-08-17T01:20:16.864Z,96.63
2022-08-17T01:20:51.315Z,96.63
2022-08-17T01:21:30.301Z,96.57
2022-08-17T01:22:08.934Z,96.57
2022-08-17T01:22:42.975Z,97.35
2022-08-17T01:23:16.419Z,98.25
2022-08-17T01:23:53.425Z,96.75
2022-08-17T01:24:25.984Z,96.53
2022-08-17T01:25:01.715Z,97.30
2022-08-17T01:25:35.667Z,97.10
2022-08-17T01:26:08.648Z,98.32
2022-08-17T01:26:42.762Z,96.50
2022-08-17T01:27:18.627Z,97.45
2022-08-17T01:27:53.209Z,97.45
2022-08-17T01:28:33.578Z,95.23
2022-08-17T01:29:25.887Z,95.53
2022-08-17T01:30:02.607Z,96.43
2022-08-17T01:30:57.241Z,95.35
2022-08-17T01:31:31.984Z,97.22
2022-08-17T01:32:07.105Z,96.43
2022-08-17T01:32:40.633Z,96.43
2022-08-17T01:33:14.240Z,97.15
2022-08-17T01:33:47.528Z,98.38
2022-08-17T01:34:21.046Z,95.65
2022-08-17T01:34:55.463Z,97.20
2022-08-17T01:35:28.158Z,96.05
2022-08-17T01:36:00.739Z,96.18
2022-08-17T01:36:34.311Z,96.13
2022-08-17T01:37:07.318Z,98.32
2022-08-17T01:37:42.848Z,98.88
2022-08-17T01:38:17.151Z,95.70
2022-08-17T01:39:00.218Z,96.00
2022-08-17T01:39:36.598Z,95.37
2022-08-17T01:40:16.326Z,97.45
2022-08-17T01:40:57.474Z,94.95
2022-08-17T01:41:30.495Z,95.18
2022-08-17T01:42:09.960Z,95.32
2022-08-17T01:42:46.113Z,94.82
2022-08-17T01:43:22.801Z,95.57
2022-08-17T01:43:58.336Z,96.70
2022-08-17T01:44:31.189Z,96.13
2022-08-17T01:45:08.305Z,96.25
2022-08-17T01:45:46.469Z,95.97
2022-08-17T01:46:23.828Z,96.30
2022-08-17T01:46:56.395Z,96.38
2022-08-17T01:47:30.213Z,95.65
2022-08-17T01:48:04.045Z,95.40
2022-08-17T01:48:38.045Z,94.65
2022-08-17T01:49:13.911Z,96.63
2022-08-17T01:49:46.370Z,95.15
2022-08-17T01:50:21.708Z,95.97
2022-08-17T01:50:55.233Z,95.75
2022-08-17T01:51:32.429Z,96.32
2022-08-17T01:52:09.785Z,96.13
2022-08-17T01:52:45.610Z,96.93
2022-08-17T01:53:21.987Z,95.53
2022-08-17T01:53:58.182Z,95.88
2022-08-17T01:54:31.779Z,94.68
2022-08-17T01:55:06.440Z,96.97
2022-08-17T01:55:45.297Z,96.75
2022-08-17T01:56:20.325Z,97.43
2022-08-17T01:56:53.261Z,96.78
2022-08-17T01:57:26.727Z,96.00
2022-08-17T01:57:59.568Z,95.57
2022-08-17T01:58:35.692Z,96.30
2022-08-17T01:59:09.282Z,96.63
2022-08-17T01:59:42.127Z,95.75
2022-08-17T02:00:15.473Z,96.38
2022-08-17T02:01:00.707Z,96.68
2022-08-17T02:01:35.819Z,98.10
2022-08-17T02:02:08.754Z,95.55
2022-08-17T02:02:45.031Z,96.80
2022-08-17T02:03:18.022Z,97.45
2022-08-17T02:03:59.446Z,96.78
2022-08-17T02:04:35.194Z,96.22
2022-08-17T02:05:08.577Z,97.30
2022-08-17T02:05:41.478Z,97.60
2022-08-17T02:06:27.546Z,96.57
2022-08-17T02:07:01.088Z,97.88
2022-08-17T02:07:59.415Z,129.88
2022-08-17T02:08:38.665Z,207.65
2022-08-17T02:09:16.451Z,305.15
2022-08-17T02:09:52.768Z,472.95
2022-08-17T02:10:25.391Z,339.63
2022-08-17T02:11:11.601Z,362.25
2022-08-17T02:11:46.279Z,564.22
2022-08-17T02:12:39.389Z,371.15
2022-08-17T02:13:12.662Z,672.17
2022-08-17T02:13:46.179Z,772.78
2022-08-17T02:14:19.164Z,771.47
2022-08-17T02:14:52.914Z,994.97
2022-08-17T02:15:25.764Z,947.42
2022-08-17T02:15:58.790Z,999.90
2022-08-17T02:16:36.853Z,999.90
2022-08-17T02:17:10.531Z,702.25
2022-08-17T02:17:43.027Z,707.08
2022-08-17T02:18:17.156Z,596.30
2022-08-17T02:18:49.732Z,585.63
2022-08-17T02:19:22.672Z,715.50
2022-08-17T02:19:56.124Z,743.33
2022-08-17T02:20:41.209Z,686.92
2022-08-17T02:21:15.717Z,611.15
2022-08-17T02:21:51.103Z,555.47
2022-08-17T02:22:26.130Z,506.77
2022-08-17T02:23:00.154Z,448.05
2022-08-17T02:23:40.430Z,465.40
2022-08-17T02:24:16.288Z,535.40
2022-08-17T02:24:59.608Z,542.97
2022-08-17T02:25:36.344Z,553.90
2022-08-17T02:26:09.519Z,553.78
2022-08-17T02:26:56.747Z,629.30
2022-08-17T02:27:30.566Z,757.55
2022-08-17T02:28:03.568Z,789.03
2022-08-17T02:28:36.422Z,718.05
2022-08-17T02:29:09.932Z,697.65
2022-08-17T02:29:42.510Z,724.90
2022-08-17T02:30:59.128Z,719.97
2022-08-17T02:31:12.528Z,701.90
2022-08-17T02:31:45.246Z,657.67
2022-08-17T02:32:25.385Z,665.25
2022-08-17T02:33:04.205Z,625.53
2022-08-17T02:33:43.239Z,602.20
2022-08-17T02:34:17.216Z,593.22
2022-08-17T02:34:50.524Z,588.88
2022-08-17T02:35:23.656Z,554.63
2022-08-17T02:35:57.889Z,557.58
2022-08-17T02:36:31.354Z,562.90
2022-08-17T02:37:03.998Z,564.80
2022-08-17T02:37:36.710Z,584.00
2022-08-17T02:38:10.929Z,634.13
2022-08-17T02:38:44.821Z,582.38
2022-08-17T02:39:17.501Z,511.67
2022-08-17T02:39:50.974Z,600.47
2022-08-17T02:40:36.621Z,601.22
2022-08-17T02:41:09.739Z,545.90
2022-08-17T02:41:44.606Z,531.03
2022-08-17T02:42:17.317Z,566.58
2022-08-17T02:42:50.133Z,571.67
2022-08-17T02:43:22.758Z,543.00
2022-08-17T02:43:56.244Z,740.65
2022-08-17T02:44:35.459Z,581.72
2022-08-17T02:45:20.126Z,630.77
2022-08-17T02:45:52.727Z,603.45
2022-08-17T02:46:25.378Z,596.53
2022-08-17T02:46:58.986Z,587.85
2022-08-17T02:47:31.503Z,632.17
2022-08-17T02:48:05.155Z,633.53
2022-08-17T02:48:39.901Z,705.72
2022-08-17T02:49:12.444Z,645.00
2022-08-17T02:49:54.203Z,651.85
2022-08-17T02:50:29.468Z,715.13
2022-08-17T02:51:02.078Z,794.88
2022-08-17T02:51:36.449Z,998.00
2022-08-17T02:52:09.928Z,927.65
2022-08-17T02:52:44.685Z,954.05
2022-08-17T02:53:22.696Z,928.33
2022-08-17T02:54:35.738Z,999.90
2022-08-17T02:54:50.154Z,999.90
2022-08-17T02:55:25.778Z,999.90
2022-08-17T02:55:58.430Z,999.90
2022-08-17T02:56:30.947Z,522.00
2022-08-17T02:57:04.538Z,104.28
2022-08-17T02:57:37.401Z,101.95
2022-08-17T02:58:10.648Z,103.78
2022-08-17T02:58:43.214Z,104.53
2022-08-17T02:59:16.816Z,101.93
2022-08-17T02:59:49.370Z,103.18
2022-08-17T03:00:26.506Z,101.40
2022-08-17T03:01:00.506Z,100.60
2022-08-17T03:01:33.120Z,102.05
2022-08-17T03:02:07.528Z,101.90
2022-08-17T03:02:41.900Z,101.90
2022-08-17T03:03:18.761Z,102.05
2022-08-17T03:03:51.466Z,101.28
2022-08-17T03:04:25.090Z,99.95
2022-08-17T03:04:57.650Z,102.95
2022-08-17T03:05:32.127Z,100.07
2022-08-17T03:06:07.669Z,99.20
2022-08-17T03:06:40.370Z,100.05
2022-08-17T03:07:12.887Z,102.18
2022-08-17T03:07:46.472Z,102.73
2022-08-17T03:08:22.278Z,101.63
2022-08-17T03:08:56.140Z,102.70
2022-08-17T03:09:29.571Z,104.15
2022-08-17T03:10:02.781Z,101.72
2022-08-17T03:10:35.716Z,106.00
2022-08-17T03:11:09.162Z,105.78
2022-08-17T03:11:41.644Z,103.68
2022-08-17T03:12:14.934Z,104.60
2022-08-17T03:12:50.198Z,103.65
2022-08-17T03:13:23.096Z,103.53
2022-08-17T03:13:56.783Z,105.00
2022-08-17T03:14:29.346Z,102.70
2022-08-17T03:15:03.993Z,104.78
2022-08-17T03:15:40.568Z,104.05
2022-08-17T03:16:16.293Z,102.68
2022-08-17T03:16:48.794Z,103.50
2022-08-17T03:17:22.291Z,102.68
2022-08-17T03:17:55.576Z,102.90
2022-08-17T03:18:28.189Z,100.75
2022-08-17T03:19:01.667Z,102.85
2022-08-17T03:19:34.154Z,102.30
2022-08-17T03:20:09.015Z,104.35
2022-08-17T03:20:43.022Z,104.68
2022-08-17T03:21:15.528Z,104.78
2022-08-17T03:21:55.111Z,104.85
2022-08-17T03:22:36.882Z,105.38
2022-08-17T03:23:11.142Z,105.07
2022-08-17T03:23:44.626Z,104.22
2022-08-17T03:24:19.100Z,102.47
2022-08-17T03:24:52.131Z,105.20
2022-08-17T03:25:29.874Z,103.50
2022-08-17T03:26:02.423Z,103.03
2022-08-17T03:26:35.389Z,103.40
2022-08-17T03:27:08.912Z,104.97
2022-08-17T03:27:42.055Z,103.75
2022-08-17T03:28:18.134Z,103.55
2022-08-17T03:28:50.624Z,103.63
2022-08-17T03:29:23.108Z,102.43
2022-08-17T03:29:56.582Z,101.25
2022-08-17T03:30:29.835Z,102.50
2022-08-17T03:31:03.002Z,103.20
2022-08-17T03:31:36.962Z,102.18
2022-08-17T03:32:13.706Z,102.15
2022-08-17T03:32:48.936Z,100.90
2022-08-17T03:33:23.142Z,100.57
2022-08-17T03:33:56.279Z,101.60
2022-08-17T03:34:28.905Z,101.32
2022-08-17T03:35:01.419Z,99.35
2022-08-17T03:35:36.465Z,100.18
2022-08-17T03:36:10.707Z,101.50
2022-08-17T03:36:43.447Z,99.75
2022-08-17T03:37:16.082Z,98.55
2022-08-17T03:37:59.985Z,99.35
2022-08-17T03:38:39.176Z,96.93
2022-08-17T03:39:12.044Z,95.60
2022-08-17T03:39:46.062Z,93.70
2022-08-17T03:40:36.985Z,94.45
2022-08-17T03:41:13.930Z,91.00
2022-08-17T03:41:47.336Z,91.07
2022-08-17T03:42:32.553Z,91.70
2022-08-17T03:43:06.944Z,87.55
2022-08-17T03:43:40.397Z,87.72
2022-08-17T03:44:13.010Z,86.28
2022-08-17T03:44:49.319Z,84.60
2022-08-17T03:45:39.206Z,85.50
2022-08-17T03:46:35.043Z,85.20
2022-08-17T03:47:26.474Z,85.35
2022-08-17T03:48:17.636Z,84.72
2022-08-17T03:49:08.721Z,82.53
2022-08-17T03:49:59.754Z,83.28
2022-08-17T03:50:50.551Z,80.00
2022-08-17T03:51:43.560Z,79.88
2022-08-17T03:52:34.267Z,79.45
2022-08-17T03:53:28.075Z,79.70
2022-08-17T03:54:19.323Z,80.90
2022-08-17T03:55:11.480Z,80.50
2022-08-17T03:56:02.683Z,81.20
2022-08-17T03:56:45.775Z,81.88
2022-08-17T03:57:19.205Z,81.20
2022-08-17T03:57:53.923Z,81.15
2022-08-17T03:58:26.498Z,79.90
2022-08-17T03:58:58.959Z,78.70
2022-08-17T03:59:32.964Z,79.68
2022-08-17T04:00:06.822Z,79.50
2022-08-17T04:00:45.434Z,78.68
2022-08-17T04:01:19.088Z,78.97
2022-08-17T04:01:53.932Z,78.45
2022-08-17T04:02:30.593Z,78.32
2022-08-17T04:03:04.321Z,81.25
2022-08-17T04:03:36.848Z,79.78
2022-08-17T04:04:09.375Z,79.00
2022-08-17T04:04:42.904Z,78.85
2022-08-17T04:05:15.398Z,80.00
2022-08-17T04:05:47.917Z,79.55
2022-08-17T04:06:21.421Z,81.50
2022-08-17T04:06:53.901Z,81.50
2022-08-17T04:07:29.397Z,82.63
2022-08-17T04:08:01.874Z,82.32
2022-08-17T04:08:37.692Z,82.55
2022-08-17T04:09:12.079Z,83.22
2022-08-17T04:09:44.996Z,80.80
2022-08-17T04:10:22.700Z,81.70
2022-08-17T04:10:58.890Z,80.47
2022-08-17T04:11:31.607Z,80.10
2022-08-17T04:12:06.106Z,80.20
2022-08-17T04:12:48.491Z,81.47
2022-08-17T04:13:24.190Z,83.13
2022-08-17T04:13:59.047Z,83.45
2022-08-17T04:14:36.215Z,83.15
2022-08-17T04:15:26.804Z,83.80
2022-08-17T04:15:59.915Z,84.55
2022-08-17T04:16:33.162Z,84.25
2022-08-17T04:17:06.774Z,83.70
2022-08-17T04:17:39.315Z,83.47
2022-08-17T04:18:11.863Z,83.65
2022-08-17T04:18:45.370Z,83.22
2022-08-17T04:19:17.871Z,83.45
2022-08-17T04:19:50.350Z,83.18
2022-08-17T04:20:25.561Z,83.50
2022-08-17T04:20:58.048Z,84.05
2022-08-17T04:21:31.623Z,81.85
2022-08-17T04:22:06.045Z,79.68
2022-08-17T04:22:38.897Z,78.70
2022-08-17T04:23:14.353Z,80.30
2022-08-17T04:23:48.132Z,79.78
2022-08-17T04:24:20.810Z,78.30
2022-08-17T04:24:53.264Z,79.45
2022-08-17T04:25:29.070Z,78.07
2022-08-17T04:26:01.615Z,78.15
2022-08-17T04:26:52.464Z,78.05
2022-08-17T04:27:27.704Z,78.55
2022-08-17T04:28:01.127Z,78.68
2022-08-17T04:28:33.620Z,78.90
2022-08-17T04:29:09.651Z,78.07
2022-08-17T04:29:54.422Z,77.22
2022-08-17T04:30:29.123Z,77.60
2022-08-17T04:31:02.575Z,77.75
2022-08-17T04:31:35.157Z,76.47
2022-08-17T04:32:07.938Z,76.63
2022-08-17T04:33:08.774Z,76.60
2022-08-17T04:33:43.969Z,77.22
2022-08-17T04:34:19.577Z,76.60
2022-08-17T04:34:52.998Z,77.50
2022-08-17T04:35:27.575Z,77.25
2022-08-17T04:36:03.585Z,78.95
2022-08-17T04:36:36.221Z,78.00
2022-08-17T04:37:08.715Z,76.68
2022-08-17T04:37:41.183Z,77.20
2022-08-17T04:38:17.354Z,78.18
2022-08-17T04:38:49.837Z,77.25
2022-08-17T04:39:25.018Z,77.75
2022-08-17T04:40:12.439Z,77.43
2022-08-17T04:41:05.556Z,78.10
2022-08-17T04:42:02.129Z,77.80
2022-08-17T04:42:34.707Z,78.60
2022-08-17T04:43:08.961Z,78.93
2022-08-17T04:43:44.757Z,78.28
2022-08-17T04:44:37.171Z,78.97
2022-08-17T04:45:10.488Z,77.70
2022-08-17T04:45:55.556Z,78.20
2022-08-17T04:46:32.815Z,78.20
2022-08-17T04:47:07.196Z,75.97
2022-08-17T04:47:43.121Z,78.40
2022-08-17T04:48:15.797Z,77.30
2022-08-17T04:48:52.090Z,77.07
2022-08-17T04:49:24.583Z,78.55
2022-08-17T04:49:57.400Z,78.70
2022-08-17T04:50:30.928Z,78.05
2022-08-17T04:51:06.913Z,78.22
2022-08-17T04:51:54.558Z,76.10
2022-08-17T04:52:29.799Z,77.40
2022-08-17T04:53:16.202Z,77.22
2022-08-17T04:54:05.331Z,75.68
2022-08-17T04:54:37.783Z,78.00
2022-08-17T04:55:10.751Z,78.15
2022-08-17T04:55:43.413Z,77.53
2022-08-17T04:56:19.185Z,78.28
2022-08-17T04:56:51.665Z,79.00
2022-08-17T04:57:25.109Z,78.97
2022-08-17T04:57:57.678Z,79.13
2022-08-17T04:58:30.280Z,80.38
2022-08-17T04:59:06.742Z,79.50
2022-08-17T04:59:39.224Z,79.30
2022-08-17T05:00:12.687Z,79.03
2022-08-17T05:00:45.356Z,79.50
2022-08-17T05:01:23.195Z,80.73
2022-08-17T05:01:56.701Z,80.50
2022-08-17T05:02:29.195Z,80.78
2022-08-17T05:03:02.796Z,80.28
2022-08-17T05:03:35.566Z,80.20
2022-08-17T05:04:33.110Z,81.68
2022-08-17T05:05:05.299Z,81.57
2022-08-17T05:05:43.173Z,81.00
2022-08-17T05:06:16.683Z,80.07
2022-08-17T05:06:49.608Z,80.47
2022-08-17T05:07:24.652Z,82.07
2022-08-17T05:08:02.439Z,82.38
2022-08-17T05:08:35.106Z,82.63
2022-08-17T05:09:08.540Z,81.68
2022-08-17T05:09:40.969Z,82.65
2022-08-17T05:10:13.558Z,83.97
2022-08-17T05:10:47.842Z,83.32
2022-08-17T05:11:22.576Z,84.35
2022-08-17T05:11:56.256Z,85.07
2022-08-17T05:12:28.841Z,85.20
2022-08-17T05:13:03.529Z,85.90
2022-08-17T05:13:36.996Z,86.00
2022-08-17T05:14:09.607Z,86.78
2022-08-17T05:14:42.091Z,86.68
2022-08-17T05:15:16.755Z,85.07
2022-08-17T05:15:55.788Z,84.30
2022-08-17T05:16:30.179Z,86.80
2022-08-17T05:17:07.046Z,86.63
2022-08-17T05:17:44.010Z,86.33
2022-08-17T05:18:18.484Z,86.88
2022-08-17T05:18:51.380Z,85.93
2022-08-17T05:19:24.881Z,85.53
2022-08-17T05:19:57.363Z,87.30
2022-08-17T05:20:29.973Z,86.32
2022-08-17T05:21:04.167Z,85.53
2022-08-17T05:21:36.655Z,84.27
2022-08-17T05:22:09.232Z,85.80
2022-08-17T05:22:51.185Z,87.55
2022-08-17T05:23:26.310Z,84.45
2022-08-17T05:23:59.570Z,85.93
2022-08-17T05:24:38.702Z,85.20
2022-08-17T05:25:18.256Z,83.95
2022-08-17T05:25:58.271Z,84.28
2022-08-17T05:26:32.273Z,84.88
2022-08-17T05:27:10.202Z,84.47
2022-08-17T05:27:49.316Z,84.78
2022-08-17T05:28:27.609Z,83.97
2022-08-17T05:29:03.067Z,82.90
2022-08-17T05:29:36.416Z,83.15
2022-08-17T05:30:10.584Z,82.95
2022-08-17T05:30:43.733Z,83.30
2022-08-17T05:31:16.529Z,82.75
2022-08-17T05:31:50.418Z,81.30
2022-08-17T05:32:38.701Z,80.78
2022-08-17T05:33:15.064Z,80.28
2022-08-17T05:33:49.524Z,81.15
2022-08-17T05:34:22.800Z,81.35
2022-08-17T05:34:59.934Z,80.10
2022-08-17T05:35:36.056Z,80.97
2022-08-17T05:36:10.873Z,81.40
2022-08-17T05:37:04.485Z,80.43
2022-08-17T05:37:37.027Z,80.63
2022-08-17T05:38:10.761Z,81.60
2022-08-17T05:38:44.606Z,82.07
2022-08-17T05:39:17.496Z,80.95
2022-08-17T05:39:50.007Z,80.50
2022-08-17T05:40:25.850Z,80.28
2022-08-17T05:40:59.309Z,80.93
2022-08-17T05:41:34.185Z,79.82
2022-08-17T05:42:07.187Z,80.90
2022-08-17T05:42:39.882Z,79.53
2022-08-17T05:43:16.164Z,80.00
2022-08-17T05:43:50.884Z,81.43
2022-08-17T05:44:27.836Z,81.15
2022-08-17T05:45:00.603Z,80.55
2022-08-17T05:45:55.390Z,80.57
2022-08-17T05:46:31.233Z,81.03
2022-08-17T05:47:05.514Z,80.32
2022-08-17T05:47:44.407Z,80.88
2022-08-17T05:48:18.103Z,80.88
2022-08-17T05:48:53.971Z,82.75
2022-08-17T05:49:29.274Z,81.35
2022-08-17T05:50:02.486Z,82.47
2022-08-17T05:50:48.652Z,82.80
2022-08-17T05:51:56.553Z,82.57
2022-08-17T05:52:39.362Z,83.25
2022-08-17T05:53:22.319Z,84.50
2022-08-17T05:54:04.863Z,83.43
2022-08-17T05:54:50.967Z,83.20
2022-08-17T05:55:32.966Z,82.57
2022-08-17T05:56:29.512Z,83.47
2022-08-17T05:57:27.164Z,83.75
2022-08-17T05:58:10.340Z,82.65
2022-08-17T05:58:55.704Z,83.72
2022-08-17T05:59:37.515Z,83.95
2022-08-17T06:00:16.964Z,82.40
2022-08-17T06:01:01.518Z,83.35
2022-08-17T06:01:42.412Z,82.05
2022-08-17T06:02:22.143Z,81.65
2022-08-17T06:03:09.543Z,81.82
2022-08-17T06:03:50.930Z,80.15
2022-08-17T06:04:31.711Z,81.20
2022-08-17T06:05:14.429Z,80.70
2022-08-17T06:05:59.975Z,80.22
2022-08-17T06:06:40.317Z,79.03
2022-08-17T06:07:20.799Z,76.93
2022-08-17T06:08:00.063Z,75.17
2022-08-17T06:08:40.062Z,75.88
2022-08-17T06:09:37.491Z,76.53
2022-08-17T06:10:15.426Z,75.72
2022-08-17T06:10:57.231Z,75.78
2022-08-17T06:11:46.635Z,76.32
2022-08-17T06:12:39.294Z,76.40
2022-08-17T06:13:20.096Z,75.50
2022-08-17T06:14:09.989Z,75.97
2022-08-17T06:14:58.867Z,74.32
2022-08-17T06:15:38.213Z,74.00
2022-08-17T06:16:33.610Z,75.45
2022-08-17T06:17:11.675Z,76.25
2022-08-17T06:17:45.467Z,75.53
2022-08-17T06:18:19.247Z,75.40
2022-08-17T06:19:00.076Z,75.72
2022-08-17T06:19:38.849Z,75.53
2022-08-17T06:20:14.297Z,75.57
2022-08-17T06:20:53.842Z,74.88
2022-08-17T06:21:31.896Z,75.47
2022-08-17T06:22:08.564Z,74.63
2022-08-17T06:22:44.951Z,75.07
2022-08-17T06:23:24.405Z,74.60
2022-08-17T06:24:05.689Z,74.07
2022-08-17T06:24:42.934Z,73.97
2022-08-17T06:25:19.022Z,74.88
2022-08-17T06:25:55.580Z,74.53
2022-08-17T06:26:38.474Z,75.43
2022-08-17T06:27:20.497Z,75.85
2022-08-17T06:27:58.240Z,74.60
2022-08-17T06:28:37.139Z,75.68
2022-08-17T06:29:35.389Z,75.25
2022-08-17T06:30:12.815Z,75.38
2022-08-17T06:30:59.429Z,75.07
2022-08-17T06:31:38.520Z,75.75
2022-08-17T06:32:12.949Z,75.55
2022-08-17T06:32:48.989Z,75.05
2022-08-17T06:33:27.377Z,74.53
2022-08-17T06:34:02.930Z,74.72
2022-08-17T06:34:37.401Z,75.07
2022-08-17T06:35:14.243Z,75.32
2022-08-17T06:35:54.401Z,75.72
2022-08-17T06:36:42.845Z,74.70
2022-08-17T06:37:38.007Z,75.60
2022-08-17T06:38:37.023Z,74.57
2022-08-17T06:39:23.261Z,75.53
2022-08-17T06:40:10.822Z,75.63
2022-08-17T06:40:57.121Z,75.38
2022-08-17T06:41:39.239Z,75.82
2022-08-17T06:43:00.819Z,74.78
2022-08-17T06:43:34.167Z,74.90
2022-08-17T06:44:43.451Z,76.05
2022-08-17T06:45:11.469Z,73.90
2022-08-17T06:45:49.395Z,76.00
2022-08-17T06:46:35.514Z,75.45
2022-08-17T06:47:12.493Z,76.10
2022-08-17T06:47:53.004Z,74.35
2022-08-17T06:48:31.959Z,74.50
2022-08-17T06:49:13.920Z,75.38
2022-08-17T06:49:55.217Z,75.40
2022-08-17T06:50:35.948Z,75.72
2022-08-17T06:51:17.019Z,75.55
2022-08-17T06:51:53.629Z,74.70
2022-08-17T06:52:45.752Z,75.25
2022-08-17T06:53:24.502Z,75.50
2022-08-17T06:54:06.517Z,74.93
2022-08-17T06:54:48.936Z,76.13
2022-08-17T06:55:26.449Z,75.93
2022-08-17T06:56:04.525Z,75.88
2022-08-17T06:56:53.844Z,76.05
2022-08-17T06:57:30.990Z,76.95
2022-08-17T06:58:15.991Z,76.88
2022-08-17T06:58:55.960Z,76.97
2022-08-17T06:59:54.604Z,76.03
2022-08-17T07:00:33.526Z,76.03
2022-08-17T07:01:11.600Z,76.30
2022-08-17T07:01:46.352Z,75.15
2022-08-17T07:02:29.472Z,75.05
2022-08-17T07:03:28.305Z,75.43
2022-08-17T07:04:11.956Z,76.63
2022-08-17T07:04:45.273Z,75.97
2022-08-17T07:05:20.589Z,75.50
2022-08-17T07:05:57.998Z,76.05
2022-08-17T07:06:37.786Z,76.13
2022-08-17T07:07:31.246Z,74.72
2022-08-17T07:08:11.671Z,75.45
2022-08-17T07:08:53.675Z,75.57
2022-08-17T07:09:31.179Z,76.30
2022-08-17T07:10:03.825Z,75.53
2022-08-17T07:10:40.897Z,75.90
2022-08-17T07:11:19.307Z,76.55
2022-08-17T07:11:54.962Z,75.78
2022-08-17T07:12:37.962Z,75.53
2022-08-17T07:13:29.499Z,75.97
2022-08-17T07:14:28.336Z,75.85
2022-08-17T07:15:08.299Z,75.72
2022-08-17T07:15:42.991Z,74.70
2022-08-17T07:16:21.360Z,75.82
2022-08-17T07:16:56.585Z,74.72
2022-08-17T07:17:46.479Z,74.85
2022-08-17T07:18:21.389Z,75.72
2022-08-17T07:18:56.192Z,75.45
2022-08-17T07:19:33.780Z,75.90
2022-08-17T07:20:10.442Z,75.13
2022-08-17T07:20:50.401Z,75.00
2022-08-17T07:21:38.699Z,74.28
2022-08-17T07:22:21.435Z,75.15
2022-08-17T07:23:01.830Z,74.57
2022-08-17T07:23:45.800Z,74.90
2022-08-17T07:24:33.163Z,75.15
2022-08-17T07:25:09.497Z,75.82
2022-08-17T07:25:42.031Z,74.88
2022-08-17T07:26:15.506Z,75.55
2022-08-17T07:26:49.546Z,75.30
2022-08-17T07:27:27.491Z,74.93
2022-08-17T07:28:02.412Z,75.55
2022-08-17T07:28:39.526Z,76.25
2022-08-17T07:29:18.751Z,74.63
2022-08-17T07:29:56.572Z,75.25
2022-08-17T07:30:44.596Z,74.53
2022-08-17T07:31:20.337Z,74.53
2022-08-17T07:31:54.865Z,73.88
2022-08-17T07:32:31.818Z,73.68
2022-08-17T07:33:12.555Z,73.85
2022-08-17T07:34:01.482Z,73.38
2022-08-17T07:35:15.597Z,74.40
2022-08-17T07:35:50.042Z,73.53
2022-08-17T07:36:29.974Z,73.85
2022-08-17T07:37:05.181Z,74.78
2022-08-17T07:37:39.876Z,74.97
2022-08-17T07:38:25.008Z,74.03
2022-08-17T07:38:59.626Z,73.82
2022-08-17T07:39:32.101Z,74.70
2022-08-17T07:40:28.115Z,74.72
2022-08-17T07:41:03.094Z,74.68
2022-08-17T07:41:58.650Z,73.85
2022-08-17T07:42:33.152Z,72.63
2022-08-17T07:43:22.005Z,73.43
2022-08-17T07:43:57.957Z,74.00
2022-08-17T07:44:32.760Z,73.63
2022-08-17T07:45:27.060Z,73.95
2022-08-17T07:46:34.291Z,74.15
2022-08-17T07:47:35.318Z,72.68
2022-08-17T07:48:20.067Z,72.03
2022-08-17T07:48:56.254Z,74.68
2022-08-17T07:49:37.085Z,73.03
2022-08-17T07:50:29.011Z,72.97
2022-08-17T07:51:01.574Z,72.90
2022-08-17T07:51:39.017Z,72.82
2022-08-17T07:52:50.916Z,72.45
2022-08-17T07:53:25.265Z,73.20
2022-08-17T07:54:13.459Z,73.35
2022-08-17T07:54:48.378Z,74.20
2022-08-17T07:55:29.462Z,72.90
2022-08-17T07:56:02.501Z,73.38
2022-08-17T07:56:41.682Z,74.38
2022-08-17T07:57:37.309Z,73.05
2022-08-17T07:58:15.336Z,73.18
2022-08-17T07:58:48.963Z,74.07
2022-08-17T07:59:24.215Z,74.60
2022-08-17T08:00:32.395Z,73.72
2022-08-17T08:01:09.031Z,73.88
2022-08-17T08:01:44.478Z,73.57
2022-08-17T08:02:30.141Z,73.57
2022-08-17T08:03:15.321Z,73.10
2022-08-17T08:03:52.543Z,73.22